Liberty Lake, Washington
Current Conditions -  °F | °C
As of 2:53 AM on Sunday 23 Nov 2014 (Local Time) from KSFF Reporting Station
Haze Haze  
Wind Chill: 28°   Ceiling: Unl
Heat Index: 28°   Visibility: 6mi
Dew Point: 26°   Wind: 3mph
Humidity: 92%   Direction: 50°NE
Pressure: 30.11"   Gusts: NA
Location:  47.65°N, 117.09°W
Report Text: KSFF 231053Z AUTO 05003KT 6SM BR CLR M02/M03 A3011 RMK AO2 SLP209 I1000 T10221033
Loading
Personal Weather Stations






























Interactive Weather Map New forecast layout! Learn more

10-Day Weather Forecast

Advertisements
Track Severe Weather on mobile